Hillburn, New York
Current Conditions -  °F | °C
As of 5:53 AM on Friday 19 Dec 2014 (Local Time) from KCDW Reporting Station
Overcast Overcast  
Wind Chill: 30°   Ceiling: 3400
Heat Index: 36°   Visibility: 10mi
Dew Point: 23°   Wind: 8mph
Humidity: 59%   Direction: 320°NW
Pressure: 29.99"   Gusts: NA
Location:  41.12°N, 74.17°W
Report Text: KCDW 191053Z AUTO 32007KT 290V350 10SM OVC034 02/M05 A2999 RMK AO2 SLP163 T00221050 TSNO
Loading
Personal Weather Stations






























Interactive Weather Map New forecast layout! Learn more

10-Day Weather Forecast

Advertisements
Track Severe Weather on mobile